sensor_id;sensor_type;location;lat;lon;timestamp;temperature;humidity
38209;DHT22;24016;52.102;11.584;2024-01-30T00:02:14;0.40;99.90
38209;DHT22;24016;52.102;11.584;2024-01-30T00:04:39;0.30;99.90
38209;DHT22;24016;52.102;11.584;2024-01-30T00:07:05;0.30;99.90
38209;DHT22;24016;52.102;11.584;2024-01-30T00:09:30;0.20;99.90
38209;DHT22;24016;52.102;11.584;2024-01-30T00:11:56;0.20;99.90
38209;DHT22;24016;52.102;11.584;2024-01-30T00:14:21;0.40;99.90
38209;DHT22;24016;52.102;11.584;2024-01-30T00:16:47;0.50;99.90
38209;DHT22;24016;52.102;11.584;2024-01-30T00:19:12;0.40;99.90
38209;DHT22;24016;52.102;11.584;2024-01-30T00:21:38;0.40;99.90
38209;DHT22;24016;52.102;11.584;2024-01-30T00:24:03;0.30;99.90
38209;DHT22;24016;52.102;11.584;2024-01-30T00:26:29;0.30;99.90
38209;DHT22;24016;52.102;11.584;2024-01-30T00:28:55;0.30;99.90
38209;DHT22;24016;52.102;11.584;2024-01-30T00:31:20;0.30;99.90
38209;DHT22;24016;52.102;11.584;2024-01-30T00:33:46;0.20;99.90
38209;DHT22;24016;52.102;11.584;2024-01-30T00:36:11;0.20;99.90
38209;DHT22;24016;52.102;11.584;2024-01-30T00:38:37;0.20;99.90
38209;DHT22;24016;52.102;11.584;2024-01-30T00:41:02;0.10;99.90
38209;DHT22;24016;52.102;11.584;2024-01-30T00:43:28;0.10;99.90
38209;DHT22;24016;52.102;11.584;2024-01-30T00:45:55;0.20;99.90
38209;DHT22;24016;52.102;11.584;2024-01-30T00:48:21;0.20;99.90
38209;DHT22;24016;52.102;11.584;2024-01-30T00:50:46;0.20;99.90
38209;DHT22;24016;52.102;11.584;2024-01-30T00:53:12;0.30;99.90
38209;DHT22;24016;52.102;11.584;2024-01-30T00:55:37;0.20;99.90
38209;DHT22;24016;52.102;11.584;2024-01-30T00:58:04;0.20;99.90
38209;DHT22;24016;52.102;11.584;2024-01-30T01:00:30;0.20;99.90
38209;DHT22;24016;52.102;11.584;2024-01-30T01:02:56;0.20;99.90
38209;DHT22;24016;52.102;11.584;2024-01-30T01:05:22;0.20;99.90
38209;DHT22;24016;52.102;11.584;2024-01-30T01:07:47;0.30;99.90
38209;DHT22;24016;52.102;11.584;2024-01-30T01:10:14;0.20;99.90
38209;DHT22;24016;52.102;11.584;2024-01-30T01:12:40;0.20;99.90
38209;DHT22;24016;52.102;11.584;2024-01-30T01:15:06;0.20;99.90
38209;DHT22;24016;52.102;11.584;2024-01-30T01:17:34;0.20;99.90
38209;DHT22;24016;52.102;11.584;2024-01-30T01:20:00;0.10;99.90
38209;DHT22;24016;52.102;11.584;2024-01-30T01:22:26;0.10;99.90
38209;DHT22;24016;52.102;11.584;2024-01-30T01:24:51;0.10;99.90
38209;DHT22;24016;52.102;11.584;2024-01-30T01:27:16;0.00;99.90
38209;DHT22;24016;52.102;11.584;2024-01-30T01:29:42;0.00;99.90
38209;DHT22;24016;52.102;11.584;2024-01-30T01:32:08;0.00;99.90
38209;DHT22;24016;52.102;11.584;2024-01-30T01:34:34;-0.10;99.90
38209;DHT22;24016;52.102;11.584;2024-01-30T01:36:59;-0.10;99.90
38209;DHT22;24016;52.102;11.584;2024-01-30T01:39:25;-0.10;99.90
38209;DHT22;24016;52.102;11.584;2024-01-30T01:41:51;-0.10;99.90
38209;DHT22;24016;52.102;11.584;2024-01-30T01:44:17;-0.10;99.90
38209;DHT22;24016;52.102;11.584;2024-01-30T01:46:43;0.00;99.90
38209;DHT22;24016;52.102;11.584;2024-01-30T01:49:09;0.00;99.90
38209;DHT22;24016;52.102;11.584;2024-01-30T01:51:36;-0.10;99.90
38209;DHT22;24016;52.102;11.584;2024-01-30T01:54:04;-0.10;99.90
38209;DHT22;24016;52.102;11.584;2024-01-30T01:56:31;-0.10;99.90
38209;DHT22;24016;52.102;11.584;2024-01-30T01:59:00;-0.10;99.90
38209;DHT22;24016;52.102;11.584;2024-01-30T02:01:26;-0.20;99.90
38209;DHT22;24016;52.102;11.584;2024-01-30T02:03:52;-0.10;99.90
38209;DHT22;24016;52.102;11.584;2024-01-30T02:06:18;-0.10;99.90
38209;DHT22;24016;52.102;11.584;2024-01-30T02:08:44;-0.10;99.90
38209;DHT22;24016;52.102;11.584;2024-01-30T02:11:10;0.00;99.90
38209;DHT22;24016;52.102;11.584;2024-01-30T02:13:36;0.00;99.90
38209;DHT22;24016;52.102;11.584;2024-01-30T02:16:02;0.00;99.90
38209;DHT22;24016;52.102;11.584;2024-01-30T02:18:28;0.10;99.90
38209;DHT22;24016;52.102;11.584;2024-01-30T02:20:56;0.10;99.90
38209;DHT22;24016;52.102;11.584;2024-01-30T02:23:24;0.20;99.90
38209;DHT22;24016;52.102;11.584;2024-01-30T02:25:52;0.30;99.90
38209;DHT22;24016;52.102;11.584;2024-01-30T02:28:19;0.30;99.90
38209;DHT22;24016;52.102;11.584;2024-01-30T02:33:21;0.20;99.90
38209;DHT22;24016;52.102;11.584;2024-01-30T02:35:49;0.20;99.90
38209;DHT22;24016;52.102;11.584;2024-01-30T02:38:18;0.20;99.90
38209;DHT22;24016;52.102;11.584;2024-01-30T02:40:49;0.30;99.90
38209;DHT22;24016;52.102;11.584;2024-01-30T02:43:16;0.20;99.90
38209;DHT22;24016;52.102;11.584;2024-01-30T02:45:41;0.20;99.90
38209;DHT22;24016;52.102;11.584;2024-01-30T02:48:07;0.20;99.90
38209;DHT22;24016;52.102;11.584;2024-01-30T02:50:34;0.20;99.90
38209;DHT22;24016;52.102;11.584;2024-01-30T02:53:04;0.10;99.90
38209;DHT22;24016;52.102;11.584;2024-01-30T02:55:33;0.10;99.90
38209;DHT22;24016;52.102;11.584;2024-01-30T02:57:59;0.10;99.90
38209;DHT22;24016;52.102;11.584;2024-01-30T03:00:24;0.20;99.90
38209;DHT22;24016;52.102;11.584;2024-01-30T03:02:50;0.30;99.90
38209;DHT22;24016;52.102;11.584;2024-01-30T03:05:16;0.20;99.90
38209;DHT22;24016;52.102;11.584;2024-01-30T03:07:42;0.20;99.90
38209;DHT22;24016;52.102;11.584;2024-01-30T03:10:07;0.30;99.90
38209;DHT22;24016;52.102;11.584;2024-01-30T03:12:45;0.20;99.90
38209;DHT22;24016;52.102;11.584;2024-01-30T03:15:11;0.30;99.90
38209;DHT22;24016;52.102;11.584;2024-01-30T03:17:36;0.20;99.90
38209;DHT22;24016;52.102;11.584;2024-01-30T03:20:03;0.20;99.90
38209;DHT22;24016;52.102;11.584;2024-01-30T03:22:29;0.10;99.90
38209;DHT22;24016;52.102;11.584;2024-01-30T03:24:54;0.10;99.90
38209;DHT22;24016;52.102;11.584;2024-01-30T03:27:20;0.00;99.90
38209;DHT22;24016;52.102;11.584;2024-01-30T03:29:46;-0.10;99.90
38209;DHT22;24016;52.102;11.584;2024-01-30T03:32:11;-0.20;99.90
38209;DHT22;24016;52.102;11.584;2024-01-30T03:34:37;-0.20;99.90
38209;DHT22;24016;52.102;11.584;2024-01-30T03:37:03;-0.30;99.90
38209;DHT22;24016;52.102;11.584;2024-01-30T03:39:28;-0.20;99.90
38209;DHT22;24016;52.102;11.584;2024-01-30T03:41:55;-0.30;99.90
38209;DHT22;24016;52.102;11.584;2024-01-30T03:44:20;-0.40;99.90
38209;DHT22;24016;52.102;11.584;2024-01-30T03:46:46;-0.40;99.90
38209;DHT22;24016;52.102;11.584;2024-01-30T03:49:13;-0.30;99.90
38209;DHT22;24016;52.102;11.584;2024-01-30T03:51:38;-0.20;99.90
38209;DHT22;24016;52.102;11.584;2024-01-30T03:54:04;-0.30;99.90
38209;DHT22;24016;52.102;11.584;2024-01-30T03:56:30;-0.30;99.90
38209;DHT22;24016;52.102;11.584;2024-01-30T03:58:55;-0.30;99.90
38209;DHT22;24016;52.102;11.584;2024-01-30T04:01:23;-0.30;99.90
38209;DHT22;24016;52.102;11.584;2024-01-30T04:03:48;-0.20;99.90
38209;DHT22;24016;52.102;11.584;2024-01-30T04:06:15;-0.30;99.90
38209;DHT22;24016;52.102;11.584;2024-01-30T04:08:40;-0.40;99.90
38209;DHT22;24016;52.102;11.584;2024-01-30T04:11:06;-0.30;99.90
38209;DHT22;24016;52.102;11.584;2024-01-30T04:13:35;-0.30;99.90
38209;DHT22;24016;52.102;11.584;2024-01-30T04:16:03;-0.30;99.90
38209;DHT22;24016;52.102;11.584;2024-01-30T04:18:29;-0.40;99.90
38209;DHT22;24016;52.102;11.584;2024-01-30T04:20:58;-0.20;99.90
38209;DHT22;24016;52.102;11.584;2024-01-30T04:23:23;-0.30;99.90
38209;DHT22;24016;52.102;11.584;2024-01-30T04:25:49;-0.30;99.90
38209;DHT22;24016;52.102;11.584;2024-01-30T04:28:16;-0.10;99.90
38209;DHT22;24016;52.102;11.584;2024-01-30T04:30:42;-0.40;99.90
38209;DHT22;24016;52.102;11.584;2024-01-30T04:33:08;-0.20;99.90
38209;DHT22;24016;52.102;11.584;2024-01-30T04:35:33;-0.20;99.90
38209;DHT22;24016;52.102;11.584;2024-01-30T04:37:59;-0.20;99.90
38209;DHT22;24016;52.102;11.584;2024-01-30T04:40:25;-0.20;99.90
38209;DHT22;24016;52.102;11.584;2024-01-30T04:42:51;-0.20;99.90
38209;DHT22;24016;52.102;11.584;2024-01-30T04:45:19;-0.20;99.90
38209;DHT22;24016;52.102;11.584;2024-01-30T04:47:48;-0.20;99.90
38209;DHT22;24016;52.102;11.584;2024-01-30T04:50:16;-0.20;99.90
38209;DHT22;24016;52.102;11.584;2024-01-30T04:52:42;-0.20;99.90
38209;DHT22;24016;52.102;11.584;2024-01-30T04:55:08;-0.20;99.90
38209;DHT22;24016;52.102;11.584;2024-01-30T04:57:33;-0.20;99.90
38209;DHT22;24016;52.102;11.584;2024-01-30T04:59:59;-0.20;99.90
38209;DHT22;24016;52.102;11.584;2024-01-30T05:02:24;-0.20;99.90
38209;DHT22;24016;52.102;11.584;2024-01-30T05:04:50;-0.20;99.90
38209;DHT22;24016;52.102;11.584;2024-01-30T05:07:15;-0.10;99.90
38209;DHT22;24016;52.102;11.584;2024-01-30T05:09:41;-0.10;99.90
38209;DHT22;24016;52.102;11.584;2024-01-30T05:12:07;-0.10;99.90
38209;DHT22;24016;52.102;11.584;2024-01-30T05:14:32;0.00;99.90
38209;DHT22;24016;52.102;11.584;2024-01-30T05:16:58;0.00;99.90
38209;DHT22;24016;52.102;11.584;2024-01-30T05:19:23;0.00;99.90
38209;DHT22;24016;52.102;11.584;2024-01-30T05:21:50;0.00;99.90
38209;DHT22;24016;52.102;11.584;2024-01-30T05:24:15;0.00;99.90
38209;DHT22;24016;52.102;11.584;2024-01-30T05:26:41;-0.10;99.90
38209;DHT22;24016;52.102;11.584;2024-01-30T05:29:07;-0.10;99.90
38209;DHT22;24016;52.102;11.584;2024-01-30T05:31:33;-0.20;99.90
38209;DHT22;24016;52.102;11.584;2024-01-30T05:34:00;-0.20;99.90
38209;DHT22;24016;52.102;11.584;2024-01-30T05:36:25;-0.20;99.90
38209;DHT22;24016;52.102;11.584;2024-01-30T05:38:51;-0.20;99.90
38209;DHT22;24016;52.102;11.584;2024-01-30T05:41:17;-0.30;99.90
38209;DHT22;24016;52.102;11.584;2024-01-30T05:43:42;-0.30;99.90
38209;DHT22;24016;52.102;11.584;2024-01-30T05:46:08;-0.40;99.90
38209;DHT22;24016;52.102;11.584;2024-01-30T05:48:34;-0.20;99.90
38209;DHT22;24016;52.102;11.584;2024-01-30T05:51:00;-0.20;99.90
38209;DHT22;24016;52.102;11.584;2024-01-30T05:53:26;-0.20;99.90
38209;DHT22;24016;52.102;11.584;2024-01-30T05:55:52;-0.10;99.90
38209;DHT22;24016;52.102;11.584;2024-01-30T05:58:17;0.00;99.90
38209;DHT22;24016;52.102;11.584;2024-01-30T06:00:43;0.00;99.90
38209;DHT22;24016;52.102;11.584;2024-01-30T06:03:08;0.10;99.90
38209;DHT22;24016;52.102;11.584;2024-01-30T06:05:34;0.10;99.90
38209;DHT22;24016;52.102;11.584;2024-01-30T06:07:59;0.10;99.90
38209;DHT22;24016;52.102;11.584;2024-01-30T06:10:25;0.10;99.90
38209;DHT22;24016;52.102;11.584;2024-01-30T06:12:51;0.20;99.90
38209;DHT22;24016;52.102;11.584;2024-01-30T06:15:17;0.20;99.90
38209;DHT22;24016;52.102;11.584;2024-01-30T06:17:42;0.20;99.90
38209;DHT22;24016;52.102;11.584;2024-01-30T06:20:08;0.10;99.90
38209;DHT22;24016;52.102;11.584;2024-01-30T06:22:33;0.10;99.90
38209;DHT22;24016;52.102;11.584;2024-01-30T06:24:59;0.00;99.90
38209;DHT22;24016;52.102;11.584;2024-01-30T06:27:25;-0.10;99.90
38209;DHT22;24016;52.102;11.584;2024-01-30T06:29:50;-0.20;99.90
38209;DHT22;24016;52.102;11.584;2024-01-30T06:32:16;-0.10;99.90
38209;DHT22;24016;52.102;11.584;2024-01-30T06:34:41;-0.20;99.90
38209;DHT22;24016;52.102;11.584;2024-01-30T06:37:09;-0.20;99.90
38209;DHT22;24016;52.102;11.584;2024-01-30T06:39:34;-0.20;99.90
38209;DHT22;24016;52.102;11.584;2024-01-30T06:42:00;-0.20;99.90
38209;DHT22;24016;52.102;11.584;2024-01-30T06:44:25;-0.20;99.90
38209;DHT22;24016;52.102;11.584;2024-01-30T06:46:51;-0.30;99.90
38209;DHT22;24016;52.102;11.584;2024-01-30T06:49:16;-0.30;99.90
38209;DHT22;24016;52.102;11.584;2024-01-30T06:51:42;-0.40;99.90
38209;DHT22;24016;52.102;11.584;2024-01-30T06:54:07;-0.30;99.90
38209;DHT22;24016;52.102;11.584;2024-01-30T06:56:33;-0.10;99.90
38209;DHT22;24016;52.102;11.584;2024-01-30T06:58:58;0.20;99.90
38209;DHT22;24016;52.102;11.584;2024-01-30T07:01:30;0.30;99.90
38209;DHT22;24016;52.102;11.584;2024-01-30T07:03:57;0.40;99.90
38209;DHT22;24016;52.102;11.584;2024-01-30T07:06:22;0.50;99.90
38209;DHT22;24016;52.102;11.584;2024-01-30T07:08:49;0.50;99.90
38209;DHT22;24016;52.102;11.584;2024-01-30T07:11:19;0.50;99.90
38209;DHT22;24016;52.102;11.584;2024-01-30T07:13:45;0.50;99.90
38209;DHT22;24016;52.102;11.584;2024-01-30T07:16:11;0.40;99.90
38209;DHT22;24016;52.102;11.584;2024-01-30T07:18:36;0.20;99.90
38209;DHT22;24016;52.102;11.584;2024-01-30T07:21:02;0.10;99.90
38209;DHT22;24016;52.102;11.584;2024-01-30T07:23:27;0.10;99.90
38209;DHT22;24016;52.102;11.584;2024-01-30T07:25:54;0.00;99.90
38209;DHT22;24016;52.102;11.584;2024-01-30T07:28:20;0.00;99.90
38209;DHT22;24016;52.102;11.584;2024-01-30T07:30:46;0.20;99.90
38209;DHT22;24016;52.102;11.584;2024-01-30T07:33:12;0.20;99.90
38209;DHT22;24016;52.102;11.584;2024-01-30T07:35:38;0.40;99.90
38209;DHT22;24016;52.102;11.584;2024-01-30T07:38:04;0.40;99.90
38209;DHT22;24016;52.102;11.584;2024-01-30T07:40:29;0.50;99.90
38209;DHT22;24016;52.102;11.584;2024-01-30T07:42:55;0.60;99.90
38209;DHT22;24016;52.102;11.584;2024-01-30T07:45:20;0.60;99.90
38209;DHT22;24016;52.102;11.584;2024-01-30T07:47:51;0.70;99.90
38209;DHT22;24016;52.102;11.584;2024-01-30T07:50:16;0.70;99.90
38209;DHT22;24016;52.102;11.584;2024-01-30T07:52:45;0.80;99.90
38209;DHT22;24016;52.102;11.584;2024-01-30T07:55:11;0.90;99.90
38209;DHT22;24016;52.102;11.584;2024-01-30T07:57:39;1.00;99.90
38209;DHT22;24016;52.102;11.584;2024-01-30T08:00:05;1.10;99.90
38209;DHT22;24016;52.102;11.584;2024-01-30T08:02:32;1.20;99.90
38209;DHT22;24016;52.102;11.584;2024-01-30T08:04:58;1.30;99.90
38209;DHT22;24016;52.102;11.584;2024-01-30T08:07:23;1.40;99.90
38209;DHT22;24016;52.102;11.584;2024-01-30T08:09:49;1.50;99.90
38209;DHT22;24016;52.102;11.584;2024-01-30T08:12:14;1.60;99.90
38209;DHT22;24016;52.102;11.584;2024-01-30T08:14:40;1.70;99.90
38209;DHT22;24016;52.102;11.584;2024-01-30T08:17:06;1.80;99.90
38209;DHT22;24016;52.102;11.584;2024-01-30T08:19:33;1.90;99.90
38209;DHT22;24016;52.102;11.584;2024-01-30T08:21:58;2.00;99.90
38209;DHT22;24016;52.102;11.584;2024-01-30T08:24:24;2.10;99.90
38209;DHT22;24016;52.102;11.584;2024-01-30T08:26:49;2.30;99.90
38209;DHT22;24016;52.102;11.584;2024-01-30T08:29:15;2.40;99.90
38209;DHT22;24016;52.102;11.584;2024-01-30T08:31:40;2.50;99.90
38209;DHT22;24016;52.102;11.584;2024-01-30T08:34:06;2.60;99.90
38209;DHT22;24016;52.102;11.584;2024-01-30T08:36:31;2.70;99.90
38209;DHT22;24016;52.102;11.584;2024-01-30T08:38:57;2.80;99.90
38209;DHT22;24016;52.102;11.584;2024-01-30T08:41:22;3.00;99.90
38209;DHT22;24016;52.102;11.584;2024-01-30T08:43:48;3.10;99.90
38209;DHT22;24016;52.102;11.584;2024-01-30T08:46:17;3.30;99.90
38209;DHT22;24016;52.102;11.584;2024-01-30T08:48:43;3.50;99.90
38209;DHT22;24016;52.102;11.584;2024-01-30T08:51:09;3.80;99.90
38209;DHT22;24016;52.102;11.584;2024-01-30T08:53:35;4.00;99.90
38209;DHT22;24016;52.102;11.584;2024-01-30T08:56:02;4.20;99.90
38209;DHT22;24016;52.102;11.584;2024-01-30T08:58:28;4.50;99.90
38209;DHT22;24016;52.102;11.584;2024-01-30T09:00:53;4.60;99.90
38209;DHT22;24016;52.102;11.584;2024-01-30T09:03:19;4.70;99.90
38209;DHT22;24016;52.102;11.584;2024-01-30T09:05:44;4.80;99.90
38209;DHT22;24016;52.102;11.584;2024-01-30T09:08:10;4.90;99.90
38209;DHT22;24016;52.102;11.584;2024-01-30T09:10:36;5.10;99.90
38209;DHT22;24016;52.102;11.584;2024-01-30T09:13:02;5.20;99.90
38209;DHT22;24016;52.102;11.584;2024-01-30T09:15:28;5.40;99.90
38209;DHT22;24016;52.102;11.584;2024-01-30T09:17:53;5.40;99.90
38209;DHT22;24016;52.102;11.584;2024-01-30T09:20:19;5.60;99.90
38209;DHT22;24016;52.102;11.584;2024-01-30T09:22:45;5.70;99.90
38209;DHT22;24016;52.102;11.584;2024-01-30T09:25:11;5.80;99.90
38209;DHT22;24016;52.102;11.584;2024-01-30T09:27:37;5.80;99.90
38209;DHT22;24016;52.102;11.584;2024-01-30T09:30:03;5.90;99.90
38209;DHT22;24016;52.102;11.584;2024-01-30T09:32:28;6.00;99.90
38209;DHT22;24016;52.102;11.584;2024-01-30T09:34:54;6.10;99.90
38209;DHT22;24016;52.102;11.584;2024-01-30T09:37:19;6.20;99.90
38209;DHT22;24016;52.102;11.584;2024-01-30T09:39:45;6.40;99.90
38209;DHT22;24016;52.102;11.584;2024-01-30T09:42:28;6.70;99.90
38209;DHT22;24016;52.102;11.584;2024-01-30T09:44:57;6.90;99.90
38209;DHT22;24016;52.102;11.584;2024-01-30T09:47:22;7.20;99.90
38209;DHT22;24016;52.102;11.584;2024-01-30T09:49:49;7.40;99.90
38209;DHT22;24016;52.102;11.584;2024-01-30T09:52:15;7.60;99.90
38209;DHT22;24016;52.102;11.584;2024-01-30T09:54:41;7.90;99.90
38209;DHT22;24016;52.102;11.584;2024-01-30T09:57:07;8.00;99.90
38209;DHT22;24016;52.102;11.584;2024-01-30T09:59:33;7.90;99.90
38209;DHT22;24016;52.102;11.584;2024-01-30T10:01:58;7.80;99.90
38209;DHT22;24016;52.102;11.584;2024-01-30T10:04:24;7.70;99.90
38209;DHT22;24016;52.102;11.584;2024-01-30T10:06:50;7.60;99.90
38209;DHT22;24016;52.102;11.584;2024-01-30T10:09:16;7.70;99.90
38209;DHT22;24016;52.102;11.584;2024-01-30T10:11:42;7.60;99.90
38209;DHT22;24016;52.102;11.584;2024-01-30T10:14:07;7.50;99.90
38209;DHT22;24016;52.102;11.584;2024-01-30T10:16:34;7.40;99.90
38209;DHT22;24016;52.102;11.584;2024-01-30T10:19:00;7.40;99.90
38209;DHT22;24016;52.102;11.584;2024-01-30T10:21:25;7.40;99.90
38209;DHT22;24016;52.102;11.584;2024-01-30T10:23:51;7.30;99.90
38209;DHT22;24016;52.102;11.584;2024-01-30T10:26:16;7.30;99.90
38209;DHT22;24016;52.102;11.584;2024-01-30T10:28:45;7.30;99.90
38209;DHT22;24016;52.102;11.584;2024-01-30T10:31:10;7.30;99.90
38209;DHT22;24016;52.102;11.584;2024-01-30T10:33:36;7.60;99.90
38209;DHT22;24016;52.102;11.584;2024-01-30T10:36:03;7.70;99.90
38209;DHT22;24016;52.102;11.584;2024-01-30T10:38:30;7.80;99.90
38209;DHT22;24016;52.102;11.584;2024-01-30T10:40:57;7.90;99.90
38209;DHT22;24016;52.102;11.584;2024-01-30T10:43:29;8.00;99.90
38209;DHT22;24016;52.102;11.584;2024-01-30T10:45:57;7.90;99.90
38209;DHT22;24016;52.102;11.584;2024-01-30T10:48:29;7.80;99.90
38209;DHT22;24016;52.102;11.584;2024-01-30T10:50:55;7.80;99.90
38209;DHT22;24016;52.102;11.584;2024-01-30T10:53:23;7.90;99.90
38209;DHT22;24016;52.102;11.584;2024-01-30T10:55:51;8.10;99.90
38209;DHT22;24016;52.102;11.584;2024-01-30T10:58:18;8.10;99.90
38209;DHT22;24016;52.102;11.584;2024-01-30T11:00:43;8.10;99.90
38209;DHT22;24016;52.102;11.584;2024-01-30T11:03:09;8.10;99.90
38209;DHT22;24016;52.102;11.584;2024-01-30T11:05:35;8.10;99.90
38209;DHT22;24016;52.102;11.584;2024-01-30T11:08:11;8.20;99.90
38209;DHT22;24016;52.102;11.584;2024-01-30T11:10:49;8.20;99.90
38209;DHT22;24016;52.102;11.584;2024-01-30T11:13:15;8.30;99.90
38209;DHT22;24016;52.102;11.584;2024-01-30T11:15:41;8.50;99.90
38209;DHT22;24016;52.102;11.584;2024-01-30T11:18:08;8.50;99.90
38209;DHT22;24016;52.102;11.584;2024-01-30T11:20:34;8.60;99.90
38209;DHT22;24016;52.102;11.584;2024-01-30T11:23:02;8.60;99.90
38209;DHT22;24016;52.102;11.584;2024-01-30T11:25:32;8.50;99.90
38209;DHT22;24016;52.102;11.584;2024-01-30T11:27:57;8.60;99.90
38209;DHT22;24016;52.102;11.584;2024-01-30T11:30:31;8.70;99.90
38209;DHT22;24016;52.102;11.584;2024-01-30T11:33:04;9.00;99.90
38209;DHT22;24016;52.102;11.584;2024-01-30T11:35:43;9.20;99.90
38209;DHT22;24016;52.102;11.584;2024-01-30T11:38:13;9.30;99.90
38209;DHT22;24016;52.102;11.584;2024-01-30T11:40:39;9.50;99.90
38209;DHT22;24016;52.102;11.584;2024-01-30T11:43:07;9.60;99.90
38209;DHT22;24016;52.102;11.584;2024-01-30T11:45:33;9.80;99.90
38209;DHT22;24016;52.102;11.584;2024-01-30T11:47:59;9.70;99.90
38209;DHT22;24016;52.102;11.584;2024-01-30T11:50:31;9.80;99.90
38209;DHT22;24016;52.102;11.584;2024-01-30T11:52:59;10.00;99.90
38209;DHT22;24016;52.102;11.584;2024-01-30T11:55:25;10.10;99.90
38209;DHT22;24016;52.102;11.584;2024-01-30T11:57:50;10.20;99.90
38209;DHT22;24016;52.102;11.584;2024-01-30T12:00:17;10.40;99.90
38209;DHT22;24016;52.102;11.584;2024-01-30T12:02:44;10.30;99.90
38209;DHT22;24016;52.102;11.584;2024-01-30T12:05:09;10.10;99.90
38209;DHT22;24016;52.102;11.584;2024-01-30T12:07:35;10.00;99.90
38209;DHT22;24016;52.102;11.584;2024-01-30T12:10:02;9.80;99.90
38209;DHT22;24016;52.102;11.584;2024-01-30T12:12:28;9.70;99.90
38209;DHT22;24016;52.102;11.584;2024-01-30T12:14:55;9.60;99.90
38209;DHT22;24016;52.102;11.584;2024-01-30T12:17:30;9.60;99.90
38209;DHT22;24016;52.102;11.584;2024-01-30T12:20:05;9.60;99.90
38209;DHT22;24016;52.102;11.584;2024-01-30T12:22:33;9.70;99.90
38209;DHT22;24016;52.102;11.584;2024-01-30T12:25:01;9.80;99.90
38209;DHT22;24016;52.102;11.584;2024-01-30T12:27:27;9.80;99.90
38209;DHT22;24016;52.102;11.584;2024-01-30T12:29:56;9.80;99.90
38209;DHT22;24016;52.102;11.584;2024-01-30T12:32:23;9.90;99.90
38209;DHT22;24016;52.102;11.584;2024-01-30T12:34:48;10.00;99.90
38209;DHT22;24016;52.102;11.584;2024-01-30T12:37:14;9.90;99.90
38209;DHT22;24016;52.102;11.584;2024-01-30T12:39:45;10.00;99.90
38209;DHT22;24016;52.102;11.584;2024-01-30T12:42:10;10.20;99.90
38209;DHT22;24016;52.102;11.584;2024-01-30T12:44:36;10.30;99.90
38209;DHT22;24016;52.102;11.584;2024-01-30T12:47:04;10.20;99.90
38209;DHT22;24016;52.102;11.584;2024-01-30T12:49:30;10.10;99.90
38209;DHT22;24016;52.102;11.584;2024-01-30T12:51:56;10.00;99.90
38209;DHT22;24016;52.102;11.584;2024-01-30T12:54:23;10.00;99.90
38209;DHT22;24016;52.102;11.584;2024-01-30T12:56:48;10.10;99.90
38209;DHT22;24016;52.102;11.584;2024-01-30T12:59:14;10.00;99.90
38209;DHT22;24016;52.102;11.584;2024-01-30T13:01:39;10.00;99.90
38209;DHT22;24016;52.102;11.584;2024-01-30T13:04:05;10.00;99.90
38209;DHT22;24016;52.102;11.584;2024-01-30T13:06:30;10.00;99.90
38209;DHT22;24016;52.102;11.584;2024-01-30T13:08:56;10.00;99.90
38209;DHT22;24016;52.102;11.584;2024-01-30T13:11:21;10.20;99.90
38209;DHT22;24016;52.102;11.584;2024-01-30T13:13:47;10.20;99.90
38209;DHT22;24016;52.102;11.584;2024-01-30T13:16:13;10.20;99.90
38209;DHT22;24016;52.102;11.584;2024-01-30T13:18:38;10.30;99.90
38209;DHT22;24016;52.102;11.584;2024-01-30T13:21:04;10.40;99.90
38209;DHT22;24016;52.102;11.584;2024-01-30T13:23:29;10.50;99.90
38209;DHT22;24016;52.102;11.584;2024-01-30T13:25:55;10.50;99.90
38209;DHT22;24016;52.102;11.584;2024-01-30T13:28:23;10.60;99.90
38209;DHT22;24016;52.102;11.584;2024-01-30T13:30:49;10.60;99.90
38209;DHT22;24016;52.102;11.584;2024-01-30T13:33:14;10.60;99.90
38209;DHT22;24016;52.102;11.584;2024-01-30T13:35:40;10.60;99.90
38209;DHT22;24016;52.102;11.584;2024-01-30T13:38:06;10.60;99.90
38209;DHT22;24016;52.102;11.584;2024-01-30T13:40:31;10.60;99.90
38209;DHT22;24016;52.102;11.584;2024-01-30T13:42:57;10.70;99.90
38209;DHT22;24016;52.102;11.584;2024-01-30T13:45:22;10.60;99.90
38209;DHT22;24016;52.102;11.584;2024-01-30T13:47:48;10.60;99.90
38209;DHT22;24016;52.102;11.584;2024-01-30T13:50:13;10.70;99.90
38209;DHT22;24016;52.102;11.584;2024-01-30T13:52:42;10.70;99.90
38209;DHT22;24016;52.102;11.584;2024-01-30T13:55:12;10.60;99.90
38209;DHT22;24016;52.102;11.584;2024-01-30T13:57:37;10.50;99.90
38209;DHT22;24016;52.102;11.584;2024-01-30T14:00:04;10.40;99.90
38209;DHT22;24016;52.102;11.584;2024-01-30T14:02:32;10.40;99.90
38209;DHT22;24016;52.102;11.584;2024-01-30T14:04:57;10.30;99.90
38209;DHT22;24016;52.102;11.584;2024-01-30T14:07:23;10.20;99.90
38209;DHT22;24016;52.102;11.584;2024-01-30T14:09:49;10.20;99.90
38209;DHT22;24016;52.102;11.584;2024-01-30T14:12:15;10.20;99.90
38209;DHT22;24016;52.102;11.584;2024-01-30T14:14:40;10.20;99.90
38209;DHT22;24016;52.102;11.584;2024-01-30T14:17:06;10.20;99.90
38209;DHT22;24016;52.102;11.584;2024-01-30T14:19:35;10.10;99.90
38209;DHT22;24016;52.102;11.584;2024-01-30T14:22:01;10.00;99.90
38209;DHT22;24016;52.102;11.584;2024-01-30T14:24:27;10.00;99.90
38209;DHT22;24016;52.102;11.584;2024-01-30T14:26:53;9.90;99.90
38209;DHT22;24016;52.102;11.584;2024-01-30T14:29:19;9.80;99.90
38209;DHT22;24016;52.102;11.584;2024-01-30T14:31:44;9.80;99.90
38209;DHT22;24016;52.102;11.584;2024-01-30T14:34:10;9.80;99.90
38209;DHT22;24016;52.102;11.584;2024-01-30T14:36:37;9.90;99.90
38209;DHT22;24016;52.102;11.584;2024-01-30T14:39:02;9.90;99.90
38209;DHT22;24016;52.102;11.584;2024-01-30T14:41:29;9.90;99.90
38209;DHT22;24016;52.102;11.584;2024-01-30T14:43:55;9.80;99.90
38209;DHT22;24016;52.102;11.584;2024-01-30T14:46:21;9.80;99.90
38209;DHT22;24016;52.102;11.584;2024-01-30T14:48:47;9.80;99.90
38209;DHT22;24016;52.102;11.584;2024-01-30T14:51:13;9.70;99.90
38209;DHT22;24016;52.102;11.584;2024-01-30T14:53:39;9.60;99.90
38209;DHT22;24016;52.102;11.584;2024-01-30T14:56:05;9.60;99.90
38209;DHT22;24016;52.102;11.584;2024-01-30T14:58:30;9.40;99.90
38209;DHT22;24016;52.102;11.584;2024-01-30T15:00:56;9.40;99.90
38209;DHT22;24016;52.102;11.584;2024-01-30T15:03:21;9.40;99.90
38209;DHT22;24016;52.102;11.584;2024-01-30T15:05:47;9.30;99.90
38209;DHT22;24016;52.102;11.584;2024-01-30T15:08:13;9.30;99.90
38209;DHT22;24016;52.102;11.584;2024-01-30T15:10:38;9.10;99.90
38209;DHT22;24016;52.102;11.584;2024-01-30T15:13:04;9.00;99.90
38209;DHT22;24016;52.102;11.584;2024-01-30T15:15:30;8.90;99.90
38209;DHT22;24016;52.102;11.584;2024-01-30T15:17:56;8.80;99.90
38209;DHT22;24016;52.102;11.584;2024-01-30T15:20:22;8.80;99.90
38209;DHT22;24016;52.102;11.584;2024-01-30T15:22:47;8.80;99.90